sensor_id;sensor_type;location;lat;lon;timestamp;temperature;humidity
23207;DHT22;11773;52.570;13.052;2022-12-05T00:01:43;4.60;99.90
23207;DHT22;11773;52.570;13.052;2022-12-05T00:04:13;4.40;99.90
23207;DHT22;11773;52.570;13.052;2022-12-05T00:06:43;4.30;99.90
23207;DHT22;11773;52.570;13.052;2022-12-05T00:09:13;4.40;99.90
23207;DHT22;11773;52.570;13.052;2022-12-05T00:11:44;4.30;99.90
23207;DHT22;11773;52.570;13.052;2022-12-05T00:14:13;4.30;99.90
23207;DHT22;11773;52.570;13.052;2022-12-05T00:16:43;4.30;99.90
23207;DHT22;11773;52.570;13.052;2022-12-05T00:19:14;4.40;99.90
23207;DHT22;11773;52.570;13.052;2022-12-05T00:21:44;4.50;99.90
23207;DHT22;11773;52.570;13.052;2022-12-05T00:24:14;4.50;99.90
23207;DHT22;11773;52.570;13.052;2022-12-05T00:26:44;4.60;99.90
23207;DHT22;11773;52.570;13.052;2022-12-05T00:29:13;4.60;99.90
23207;DHT22;11773;52.570;13.052;2022-12-05T00:31:43;4.60;99.90
23207;DHT22;11773;52.570;13.052;2022-12-05T00:34:13;4.60;99.90
23207;DHT22;11773;52.570;13.052;2022-12-05T00:36:42;4.70;99.90
23207;DHT22;11773;52.570;13.052;2022-12-05T00:39:12;4.70;99.90
23207;DHT22;11773;52.570;13.052;2022-12-05T00:41:42;4.60;99.90
23207;DHT22;11773;52.570;13.052;2022-12-05T00:44:12;4.60;99.90
23207;DHT22;11773;52.570;13.052;2022-12-05T00:46:42;4.60;99.90
23207;DHT22;11773;52.570;13.052;2022-12-05T00:49:12;4.60;99.90
23207;DHT22;11773;52.570;13.052;2022-12-05T00:51:42;4.70;99.90
23207;DHT22;11773;52.570;13.052;2022-12-05T00:54:13;4.70;99.90
23207;DHT22;11773;52.570;13.052;2022-12-05T00:56:44;4.60;99.90
23207;DHT22;11773;52.570;13.052;2022-12-05T00:59:18;4.70;99.90
23207;DHT22;11773;52.570;13.052;2022-12-05T01:01:50;4.70;99.90
23207;DHT22;11773;52.570;13.052;2022-12-05T01:04:22;4.80;99.90
23207;DHT22;11773;52.570;13.052;2022-12-05T01:06:56;4.70;99.90
23207;DHT22;11773;52.570;13.052;2022-12-05T01:09:26;4.80;99.90
23207;DHT22;11773;52.570;13.052;2022-12-05T01:11:56;4.70;99.90
23207;DHT22;11773;52.570;13.052;2022-12-05T01:14:26;4.70;99.90
23207;DHT22;11773;52.570;13.052;2022-12-05T01:16:56;4.80;99.90
23207;DHT22;11773;52.570;13.052;2022-12-05T01:19:28;4.70;99.90
23207;DHT22;11773;52.570;13.052;2022-12-05T01:21:59;4.60;99.90
23207;DHT22;11773;52.570;13.052;2022-12-05T01:24:29;4.70;99.90
23207;DHT22;11773;52.570;13.052;2022-12-05T01:26:58;4.60;99.90
23207;DHT22;11773;52.570;13.052;2022-12-05T01:29:28;4.70;99.90
23207;DHT22;11773;52.570;13.052;2022-12-05T01:31:57;4.70;99.90
23207;DHT22;11773;52.570;13.052;2022-12-05T01:34:27;4.50;99.90
23207;DHT22;11773;52.570;13.052;2022-12-05T01:36:57;4.50;99.90
23207;DHT22;11773;52.570;13.052;2022-12-05T01:39:26;4.70;99.90
23207;DHT22;11773;52.570;13.052;2022-12-05T01:41:55;4.70;99.90
23207;DHT22;11773;52.570;13.052;2022-12-05T01:46:59;4.60;99.90
23207;DHT22;11773;52.570;13.052;2022-12-05T01:49:37;4.70;99.90
23207;DHT22;11773;52.570;13.052;2022-12-05T01:52:12;4.70;99.90
23207;DHT22;11773;52.570;13.052;2022-12-05T01:54:44;4.70;99.90
23207;DHT22;11773;52.570;13.052;2022-12-05T01:57:15;4.80;99.90
23207;DHT22;11773;52.570;13.052;2022-12-05T01:59:47;4.80;99.90
23207;DHT22;11773;52.570;13.052;2022-12-05T02:02:20;4.80;99.90
23207;DHT22;11773;52.570;13.052;2022-12-05T02:04:58;4.80;99.90
23207;DHT22;11773;52.570;13.052;2022-12-05T02:07:44;4.80;99.90
23207;DHT22;11773;52.570;13.052;2022-12-05T02:10:15;4.70;99.90
23207;DHT22;11773;52.570;13.052;2022-12-05T02:12:45;4.70;99.90
23207;DHT22;11773;52.570;13.052;2022-12-05T02:15:30;4.70;99.90
23207;DHT22;11773;52.570;13.052;2022-12-05T02:21:28;4.70;99.90
23207;DHT22;11773;52.570;13.052;2022-12-05T02:30:17;4.70;99.90
23207;DHT22;11773;52.570;13.052;2022-12-05T02:33:16;4.60;99.90
23207;DHT22;11773;52.570;13.052;2022-12-05T02:36:00;4.70;99.90
23207;DHT22;11773;52.570;13.052;2022-12-05T02:38:52;4.70;99.90
23207;DHT22;11773;52.570;13.052;2022-12-05T02:41:39;4.70;99.90
23207;DHT22;11773;52.570;13.052;2022-12-05T02:44:21;4.70;99.90
23207;DHT22;11773;52.570;13.052;2022-12-05T02:46:51;4.80;99.90
23207;DHT22;11773;52.570;13.052;2022-12-05T02:49:26;4.80;99.90
23207;DHT22;11773;52.570;13.052;2022-12-05T02:51:58;4.70;99.90
23207;DHT22;11773;52.570;13.052;2022-12-05T02:54:34;4.80;99.90
23207;DHT22;11773;52.570;13.052;2022-12-05T02:57:06;4.90;99.90
23207;DHT22;11773;52.570;13.052;2022-12-05T02:59:37;4.80;99.90
23207;DHT22;11773;52.570;13.052;2022-12-05T03:02:27;4.80;99.90
23207;DHT22;11773;52.570;13.052;2022-12-05T03:05:18;4.70;99.90
23207;DHT22;11773;52.570;13.052;2022-12-05T03:07:57;4.70;99.90
23207;DHT22;11773;52.570;13.052;2022-12-05T03:10:32;4.80;99.90
23207;DHT22;11773;52.570;13.052;2022-12-05T03:13:09;4.80;99.90
23207;DHT22;11773;52.570;13.052;2022-12-05T03:15:42;4.80;99.90
23207;DHT22;11773;52.570;13.052;2022-12-05T03:18:22;4.70;99.90
23207;DHT22;11773;52.570;13.052;2022-12-05T03:21:03;4.80;99.90
23207;DHT22;11773;52.570;13.052;2022-12-05T03:23:48;4.80;99.90
23207;DHT22;11773;52.570;13.052;2022-12-05T03:26:36;4.90;99.90
23207;DHT22;11773;52.570;13.052;2022-12-05T03:29:28;4.90;99.90
23207;DHT22;11773;52.570;13.052;2022-12-05T03:32:07;4.90;99.90
23207;DHT22;11773;52.570;13.052;2022-12-05T03:34:48;5.00;99.90
23207;DHT22;11773;52.570;13.052;2022-12-05T03:37:46;4.90;99.90
23207;DHT22;11773;52.570;13.052;2022-12-05T03:40:23;4.90;99.90
23207;DHT22;11773;52.570;13.052;2022-12-05T03:43:31;5.00;99.90
23207;DHT22;11773;52.570;13.052;2022-12-05T03:46:31;4.90;99.90
23207;DHT22;11773;52.570;13.052;2022-12-05T03:49:29;4.80;99.90
23207;DHT22;11773;52.570;13.052;2022-12-05T03:52:05;4.90;99.90
23207;DHT22;11773;52.570;13.052;2022-12-05T03:54:44;4.80;99.90
23207;DHT22;11773;52.570;13.052;2022-12-05T03:57:33;4.90;99.90
23207;DHT22;11773;52.570;13.052;2022-12-05T04:00:14;4.90;99.90
23207;DHT22;11773;52.570;13.052;2022-12-05T04:05:48;4.90;99.90
23207;DHT22;11773;52.570;13.052;2022-12-05T04:09:27;4.90;99.90
23207;DHT22;11773;52.570;13.052;2022-12-05T04:11:15;4.90;99.90
23207;DHT22;11773;52.570;13.052;2022-12-05T04:14:00;4.70;99.90
23207;DHT22;11773;52.570;13.052;2022-12-05T04:16:30;4.80;99.90
23207;DHT22;11773;52.570;13.052;2022-12-05T04:19:27;4.80;99.90
23207;DHT22;11773;52.570;13.052;2022-12-05T04:22:33;4.80;99.90
23207;DHT22;11773;52.570;13.052;2022-12-05T04:25:07;4.80;99.90
23207;DHT22;11773;52.570;13.052;2022-12-05T04:31:16;4.90;99.90
23207;DHT22;11773;52.570;13.052;2022-12-05T04:34:05;5.00;99.90
23207;DHT22;11773;52.570;13.052;2022-12-05T04:36:49;4.90;99.90
23207;DHT22;11773;52.570;13.052;2022-12-05T04:42:09;4.90;99.90
23207;DHT22;11773;52.570;13.052;2022-12-05T04:44:47;4.90;99.90
23207;DHT22;11773;52.570;13.052;2022-12-05T04:47:22;5.00;99.90
23207;DHT22;11773;52.570;13.052;2022-12-05T04:49:54;5.00;99.90
23207;DHT22;11773;52.570;13.052;2022-12-05T04:52:27;5.00;99.90
23207;DHT22;11773;52.570;13.052;2022-12-05T04:55:08;5.00;99.90
23207;DHT22;11773;52.570;13.052;2022-12-05T04:57:51;5.10;99.90
23207;DHT22;11773;52.570;13.052;2022-12-05T05:00:45;5.00;99.90
23207;DHT22;11773;52.570;13.052;2022-12-05T05:03:20;5.10;99.90
23207;DHT22;11773;52.570;13.052;2022-12-05T05:05:54;5.00;99.90
23207;DHT22;11773;52.570;13.052;2022-12-05T05:08:27;4.90;99.90
23207;DHT22;11773;52.570;13.052;2022-12-05T05:13:50;4.90;99.90
23207;DHT22;11773;52.570;13.052;2022-12-05T05:16:22;4.90;99.90
23207;DHT22;11773;52.570;13.052;2022-12-05T05:18:53;4.80;99.90
23207;DHT22;11773;52.570;13.052;2022-12-05T05:21:32;4.80;99.90
23207;DHT22;11773;52.570;13.052;2022-12-05T05:24:03;4.80;99.90
23207;DHT22;11773;52.570;13.052;2022-12-05T05:26:35;4.90;99.90
23207;DHT22;11773;52.570;13.052;2022-12-05T05:29:10;4.80;99.90
23207;DHT22;11773;52.570;13.052;2022-12-05T05:31:40;4.70;99.90
23207;DHT22;11773;52.570;13.052;2022-12-05T05:34:11;4.80;99.90
23207;DHT22;11773;52.570;13.052;2022-12-05T05:36:42;4.90;99.90
23207;DHT22;11773;52.570;13.052;2022-12-05T05:39:13;4.90;99.90
23207;DHT22;11773;52.570;13.052;2022-12-05T05:41:43;4.90;99.90
23207;DHT22;11773;52.570;13.052;2022-12-05T05:44:12;5.00;99.90
23207;DHT22;11773;52.570;13.052;2022-12-05T05:46:42;5.00;99.90
23207;DHT22;11773;52.570;13.052;2022-12-05T05:49:12;5.00;99.90
23207;DHT22;11773;52.570;13.052;2022-12-05T05:51:41;4.90;99.90
23207;DHT22;11773;52.570;13.052;2022-12-05T05:54:10;5.10;99.90
23207;DHT22;11773;52.570;13.052;2022-12-05T05:56:40;5.10;99.90
23207;DHT22;11773;52.570;13.052;2022-12-05T05:59:09;5.00;99.90
23207;DHT22;11773;52.570;13.052;2022-12-05T06:01:39;5.00;99.90
23207;DHT22;11773;52.570;13.052;2022-12-05T06:04:08;4.80;99.90
23207;DHT22;11773;52.570;13.052;2022-12-05T06:06:39;4.80;99.90
23207;DHT22;11773;52.570;13.052;2022-12-05T06:09:09;4.90;99.90
23207;DHT22;11773;52.570;13.052;2022-12-05T06:11:38;4.80;99.90
23207;DHT22;11773;52.570;13.052;2022-12-05T06:14:08;4.80;99.90
23207;DHT22;11773;52.570;13.052;2022-12-05T06:16:37;4.70;99.90
23207;DHT22;11773;52.570;13.052;2022-12-05T06:19:07;4.90;99.90
23207;DHT22;11773;52.570;13.052;2022-12-05T06:21:36;5.00;99.90
23207;DHT22;11773;52.570;13.052;2022-12-05T06:24:06;4.90;99.90
23207;DHT22;11773;52.570;13.052;2022-12-05T06:26:36;5.00;99.90
23207;DHT22;11773;52.570;13.052;2022-12-05T06:29:05;4.80;99.90
23207;DHT22;11773;52.570;13.052;2022-12-05T06:31:35;4.90;99.90
23207;DHT22;11773;52.570;13.052;2022-12-05T06:34:04;4.90;99.90
23207;DHT22;11773;52.570;13.052;2022-12-05T06:36:34;5.00;99.90
23207;DHT22;11773;52.570;13.052;2022-12-05T06:39:04;4.90;99.90
23207;DHT22;11773;52.570;13.052;2022-12-05T06:41:33;4.90;99.90
23207;DHT22;11773;52.570;13.052;2022-12-05T06:44:03;5.00;99.90
23207;DHT22;11773;52.570;13.052;2022-12-05T06:46:32;5.00;99.90
23207;DHT22;11773;52.570;13.052;2022-12-05T06:49:02;5.00;99.90
23207;DHT22;11773;52.570;13.052;2022-12-05T06:51:31;5.10;99.90
23207;DHT22;11773;52.570;13.052;2022-12-05T06:54:01;5.10;99.90
23207;DHT22;11773;52.570;13.052;2022-12-05T06:56:31;5.00;99.90
23207;DHT22;11773;52.570;13.052;2022-12-05T06:59:00;5.10;99.90
23207;DHT22;11773;52.570;13.052;2022-12-05T07:01:30;5.00;99.90
23207;DHT22;11773;52.570;13.052;2022-12-05T07:04:15;5.10;99.90
23207;DHT22;11773;52.570;13.052;2022-12-05T07:06:53;5.10;99.90
23207;DHT22;11773;52.570;13.052;2022-12-05T07:09:24;5.20;99.90
23207;DHT22;11773;52.570;13.052;2022-12-05T07:11:55;5.10;99.90
23207;DHT22;11773;52.570;13.052;2022-12-05T07:14:25;5.10;99.90
23207;DHT22;11773;52.570;13.052;2022-12-05T07:16:56;5.20;99.90
23207;DHT22;11773;52.570;13.052;2022-12-05T07:19:26;5.20;99.90
23207;DHT22;11773;52.570;13.052;2022-12-05T07:21:55;5.10;99.90
23207;DHT22;11773;52.570;13.052;2022-12-05T07:24:25;5.10;99.90
23207;DHT22;11773;52.570;13.052;2022-12-05T07:26:55;5.10;99.90
23207;DHT22;11773;52.570;13.052;2022-12-05T07:29:24;5.20;99.90
23207;DHT22;11773;52.570;13.052;2022-12-05T07:31:54;5.10;99.90
23207;DHT22;11773;52.570;13.052;2022-12-05T07:34:23;5.20;99.90
23207;DHT22;11773;52.570;13.052;2022-12-05T07:36:53;5.20;99.90
23207;DHT22;11773;52.570;13.052;2022-12-05T07:39:22;5.10;99.90
23207;DHT22;11773;52.570;13.052;2022-12-05T07:41:52;5.10;99.90
23207;DHT22;11773;52.570;13.052;2022-12-05T07:44:21;5.10;99.90
23207;DHT22;11773;52.570;13.052;2022-12-05T07:46:51;5.00;99.90
23207;DHT22;11773;52.570;13.052;2022-12-05T07:49:20;5.10;99.90
23207;DHT22;11773;52.570;13.052;2022-12-05T07:51:50;5.10;99.90
23207;DHT22;11773;52.570;13.052;2022-12-05T07:54:19;5.20;99.90
23207;DHT22;11773;52.570;13.052;2022-12-05T07:56:49;5.10;99.90
23207;DHT22;11773;52.570;13.052;2022-12-05T07:59:19;5.10;99.90
23207;DHT22;11773;52.570;13.052;2022-12-05T08:01:48;5.20;99.90
23207;DHT22;11773;52.570;13.052;2022-12-05T08:04:18;5.20;99.90
23207;DHT22;11773;52.570;13.052;2022-12-05T08:06:47;5.20;99.90
23207;DHT22;11773;52.570;13.052;2022-12-05T08:09:17;5.10;99.90
23207;DHT22;11773;52.570;13.052;2022-12-05T08:11:46;5.20;99.90
23207;DHT22;11773;52.570;13.052;2022-12-05T08:14:18;5.10;99.90
23207;DHT22;11773;52.570;13.052;2022-12-05T08:16:48;5.10;99.90
23207;DHT22;11773;52.570;13.052;2022-12-05T08:19:18;5.20;99.90
23207;DHT22;11773;52.570;13.052;2022-12-05T08:21:47;5.20;99.90
23207;DHT22;11773;52.570;13.052;2022-12-05T08:24:18;5.30;99.90
23207;DHT22;11773;52.570;13.052;2022-12-05T08:26:48;5.20;99.90
23207;DHT22;11773;52.570;13.052;2022-12-05T08:29:19;5.10;99.90
23207;DHT22;11773;52.570;13.052;2022-12-05T08:31:50;5.10;99.90
23207;DHT22;11773;52.570;13.052;2022-12-05T08:34:20;5.10;99.90
23207;DHT22;11773;52.570;13.052;2022-12-05T08:36:49;5.20;99.90
23207;DHT22;11773;52.570;13.052;2022-12-05T08:39:19;5.10;99.90
23207;DHT22;11773;52.570;13.052;2022-12-05T08:41:50;5.20;99.90
23207;DHT22;11773;52.570;13.052;2022-12-05T08:44:19;5.20;99.90
23207;DHT22;11773;52.570;13.052;2022-12-05T08:46:49;5.30;99.90
23207;DHT22;11773;52.570;13.052;2022-12-05T08:49:19;5.20;99.90
23207;DHT22;11773;52.570;13.052;2022-12-05T08:51:48;5.20;99.90
23207;DHT22;11773;52.570;13.052;2022-12-05T08:54:18;5.30;99.90
23207;DHT22;11773;52.570;13.052;2022-12-05T08:56:49;5.30;99.90
23207;DHT22;11773;52.570;13.052;2022-12-05T08:59:19;5.20;99.90
23207;DHT22;11773;52.570;13.052;2022-12-05T09:01:49;5.30;99.90
23207;DHT22;11773;52.570;13.052;2022-12-05T09:04:18;5.20;99.90
23207;DHT22;11773;52.570;13.052;2022-12-05T09:06:48;5.20;99.90
23207;DHT22;11773;52.570;13.052;2022-12-05T09:09:18;5.20;99.90
23207;DHT22;11773;52.570;13.052;2022-12-05T09:11:47;5.20;99.90
23207;DHT22;11773;52.570;13.052;2022-12-05T09:14:17;5.40;99.90
23207;DHT22;11773;52.570;13.052;2022-12-05T09:16:47;5.30;99.90
23207;DHT22;11773;52.570;13.052;2022-12-05T09:19:18;5.20;99.90
23207;DHT22;11773;52.570;13.052;2022-12-05T09:21:50;5.20;99.90
23207;DHT22;11773;52.570;13.052;2022-12-05T09:24:19;5.30;99.90
23207;DHT22;11773;52.570;13.052;2022-12-05T09:26:49;5.40;99.90
23207;DHT22;11773;52.570;13.052;2022-12-05T09:29:19;5.40;99.90
23207;DHT22;11773;52.570;13.052;2022-12-05T09:31:50;5.40;99.90
23207;DHT22;11773;52.570;13.052;2022-12-05T09:34:21;5.40;99.90
23207;DHT22;11773;52.570;13.052;2022-12-05T09:36:52;5.40;99.90
23207;DHT22;11773;52.570;13.052;2022-12-05T09:39:23;5.50;99.90
23207;DHT22;11773;52.570;13.052;2022-12-05T09:45:17;5.20;99.90
23207;DHT22;11773;52.570;13.052;2022-12-05T09:47:59;5.30;99.90
23207;DHT22;11773;52.570;13.052;2022-12-05T09:50:42;5.30;99.90
23207;DHT22;11773;52.570;13.052;2022-12-05T09:53:35;5.30;99.90
23207;DHT22;11773;52.570;13.052;2022-12-05T09:56:20;5.40;99.90
23207;DHT22;11773;52.570;13.052;2022-12-05T09:58:58;5.40;99.90
23207;DHT22;11773;52.570;13.052;2022-12-05T10:01:56;5.50;99.90
23207;DHT22;11773;52.570;13.052;2022-12-05T10:10:24;5.30;99.90
23207;DHT22;11773;52.570;13.052;2022-12-05T10:15:53;5.40;99.90
23207;DHT22;11773;52.570;13.052;2022-12-05T10:18:56;5.50;99.90
23207;DHT22;11773;52.570;13.052;2022-12-05T10:21:26;5.50;99.90
23207;DHT22;11773;52.570;13.052;2022-12-05T10:24:04;5.40;99.90
23207;DHT22;11773;52.570;13.052;2022-12-05T10:26:48;5.40;99.90
23207;DHT22;11773;52.570;13.052;2022-12-05T10:29:43;5.40;99.90
23207;DHT22;11773;52.570;13.052;2022-12-05T10:32:30;5.50;99.90
23207;DHT22;11773;52.570;13.052;2022-12-05T10:35:13;5.50;99.90
23207;DHT22;11773;52.570;13.052;2022-12-05T10:37:55;5.60;99.90
23207;DHT22;11773;52.570;13.052;2022-12-05T10:40:21;5.50;99.90
23207;DHT22;11773;52.570;13.052;2022-12-05T10:42:53;5.60;99.90
23207;DHT22;11773;52.570;13.052;2022-12-05T10:45:23;5.70;99.90
23207;DHT22;11773;52.570;13.052;2022-12-05T10:47:55;5.60;99.90
23207;DHT22;11773;52.570;13.052;2022-12-05T10:50:30;5.70;99.90
23207;DHT22;11773;52.570;13.052;2022-12-05T10:53:04;5.60;99.90
23207;DHT22;11773;52.570;13.052;2022-12-05T10:55:36;5.70;99.90
23207;DHT22;11773;52.570;13.052;2022-12-05T10:58:14;5.80;99.90
23207;DHT22;11773;52.570;13.052;2022-12-05T11:00:49;5.90;99.90
23207;DHT22;11773;52.570;13.052;2022-12-05T11:03:30;5.80;99.90
23207;DHT22;11773;52.570;13.052;2022-12-05T11:09:01;5.80;99.90
23207;DHT22;11773;52.570;13.052;2022-12-05T11:11:30;5.80;99.90
23207;DHT22;11773;52.570;13.052;2022-12-05T11:14:08;5.70;99.90
23207;DHT22;11773;52.570;13.052;2022-12-05T11:16:56;5.70;99.90
23207;DHT22;11773;52.570;13.052;2022-12-05T11:22:34;5.70;99.90
23207;DHT22;11773;52.570;13.052;2022-12-05T11:25:22;5.80;99.90
23207;DHT22;11773;52.570;13.052;2022-12-05T11:27:49;5.80;99.90
23207;DHT22;11773;52.570;13.052;2022-12-05T11:30:22;5.70;99.90
23207;DHT22;11773;52.570;13.052;2022-12-05T11:33:22;5.80;99.90
23207;DHT22;11773;52.570;13.052;2022-12-05T11:35:57;5.70;99.90
23207;DHT22;11773;52.570;13.052;2022-12-05T11:38:29;5.80;99.90
23207;DHT22;11773;52.570;13.052;2022-12-05T11:41:14;5.90;99.90
23207;DHT22;11773;52.570;13.052;2022-12-05T11:43:51;5.90;99.90
23207;DHT22;11773;52.570;13.052;2022-12-05T11:46:58;5.80;99.90
23207;DHT22;11773;52.570;13.052;2022-12-05T11:50:00;5.90;99.90
23207;DHT22;11773;52.570;13.052;2022-12-05T11:58:55;5.80;99.90
23207;DHT22;11773;52.570;13.052;2022-12-05T12:01:50;5.90;99.90
23207;DHT22;11773;52.570;13.052;2022-12-05T12:04:53;5.80;99.90
23207;DHT22;11773;52.570;13.052;2022-12-05T12:08:02;5.80;99.90
23207;DHT22;11773;52.570;13.052;2022-12-05T12:10:54;5.90;99.90
23207;DHT22;11773;52.570;13.052;2022-12-05T12:13:46;5.90;99.90
23207;DHT22;11773;52.570;13.052;2022-12-05T12:16:22;5.90;99.90
23207;DHT22;11773;52.570;13.052;2022-12-05T12:25:28;6.00;99.90
23207;DHT22;11773;52.570;13.052;2022-12-05T12:28:05;5.90;99.90
23207;DHT22;11773;52.570;13.052;2022-12-05T12:31:00;6.00;99.90
23207;DHT22;11773;52.570;13.052;2022-12-05T12:36:25;6.00;99.90
23207;DHT22;11773;52.570;13.052;2022-12-05T12:39:14;6.00;99.90
23207;DHT22;11773;52.570;13.052;2022-12-05T12:42:11;6.10;99.90
23207;DHT22;11773;52.570;13.052;2022-12-05T12:44:52;6.10;99.90
23207;DHT22;11773;52.570;13.052;2022-12-05T12:47:37;6.00;99.90
23207;DHT22;11773;52.570;13.052;2022-12-05T12:50:23;6.00;99.90
23207;DHT22;11773;52.570;13.052;2022-12-05T12:56:01;6.20;99.90
23207;DHT22;11773;52.570;13.052;2022-12-05T12:58:57;6.10;99.90
23207;DHT22;11773;52.570;13.052;2022-12-05T13:01:47;6.10;99.90
23207;DHT22;11773;52.570;13.052;2022-12-05T13:04:31;6.10;99.90
23207;DHT22;11773;52.570;13.052;2022-12-05T13:07:11;6.00;99.90
23207;DHT22;11773;52.570;13.052;2022-12-05T13:09:48;6.00;99.90
23207;DHT22;11773;52.570;13.052;2022-12-05T13:12:24;6.00;99.90
23207;DHT22;11773;52.570;13.052;2022-12-05T13:15:04;6.10;99.90
23207;DHT22;11773;52.570;13.052;2022-12-05T13:17:34;6.00;99.90
23207;DHT22;11773;52.570;13.052;2022-12-05T13:20:09;6.10;99.90
23207;DHT22;11773;52.570;13.052;2022-12-05T13:22:49;6.00;99.90
23207;DHT22;11773;52.570;13.052;2022-12-05T13:25:23;6.00;99.90
23207;DHT22;11773;52.570;13.052;2022-12-05T13:28:00;6.00;99.90
23207;DHT22;11773;52.570;13.052;2022-12-05T13:30:35;6.00;99.90
23207;DHT22;11773;52.570;13.052;2022-12-05T13:33:08;6.00;99.90
23207;DHT22;11773;52.570;13.052;2022-12-05T13:35:40;6.00;99.90
23207;DHT22;11773;52.570;13.052;2022-12-05T13:38:33;6.10;99.90
23207;DHT22;11773;52.570;13.052;2022-12-05T13:41:22;6.20;99.90
23207;DHT22;11773;52.570;13.052;2022-12-05T13:44:37;6.10;99.90
23207;DHT22;11773;52.570;13.052;2022-12-05T13:47:06;6.20;99.90
23207;DHT22;11773;52.570;13.052;2022-12-05T13:52:52;6.10;99.90
23207;DHT22;11773;52.570;13.052;2022-12-05T13:55:29;6.00;99.90
23207;DHT22;11773;52.570;13.052;2022-12-05T14:04:01;6.20;99.90
23207;DHT22;11773;52.570;13.052;2022-12-05T14:09:47;6.20;99.90
23207;DHT22;11773;52.570;13.052;2022-12-05T14:12:28;6.10;99.90
23207;DHT22;11773;52.570;13.052;2022-12-05T14:15:00;6.30;99.90
23207;DHT22;11773;52.570;13.052;2022-12-05T14:17:40;6.20;99.90
23207;DHT22;11773;52.570;13.052;2022-12-05T14:20:22;6.10;99.90
23207;DHT22;11773;52.570;13.052;2022-12-05T14:28:46;6.30;99.90
23207;DHT22;11773;52.570;13.052;2022-12-05T14:34:33;6.20;99.90
23207;DHT22;11773;52.570;13.052;2022-12-05T14:37:06;6.20;99.90
23207;DHT22;11773;52.570;13.052;2022-12-05T14:39:36;6.30;99.90
23207;DHT22;11773;52.570;13.052;2022-12-05T14:48:00;6.30;99.90
23207;DHT22;11773;52.570;13.052;2022-12-05T14:50:41;6.30;99.90
23207;DHT22;11773;52.570;13.052;2022-12-05T14:55:54;6.30;99.90
23207;DHT22;11773;52.570;13.052;2022-12-05T15:01:27;6.30;99.90
23207;DHT22;11773;52.570;13.052;2022-12-05T15:04:59;6.40;99.90
23207;DHT22;11773;52.570;13.052;2022-12-05T15:07:07;6.40;99.90
23207;DHT22;11773;52.570;13.052;2022-12-05T15:10:01;6.40;99.90
23207;DHT22;11773;52.570;13.052;2022-12-05T15:15:24;6.30;99.90
23207;DHT22;11773;52.570;13.052;2022-12-05T15:18:33;6.40;99.90
23207;DHT22;11773;52.570;13.052;2022-12-05T15:21:15;6.50;99.90
23207;DHT22;11773;52.570;13.052;2022-12-05T15:24:04;6.30;99.90
23207;DHT22;11773;52.570;13.052;2022-12-05T15:26:49;6.40;99.90
23207;DHT22;11773;52.570;13.052;2022-12-05T15:29:23;6.40;99.90
23207;DHT22;11773;52.570;13.052;2022-12-05T15:31:58;6.40;99.90
23207;DHT22;11773;52.570;13.052;2022-12-05T15:34:47;6.40;99.90
23207;DHT22;11773;52.570;13.052;2022-12-05T15:37:23;6.50;99.90
23207;DHT22;11773;52.570;13.052;2022-12-05T15:40:01;6.50;99.90
23207;DHT22;11773;52.570;13.052;2022-12-05T15:42:43;6.50;99.90
23207;DHT22;11773;52.570;13.052;2022-12-05T15:45:26;6.50;99.90
23207;DHT22;11773;52.570;13.052;2022-12-05T15:50:44;6.60;99.90
23207;DHT22;11773;52.570;13.052;2022-12-05T15:53:34;6.60;99.90
23207;DHT22;11773;52.570;13.052;2022-12-05T15:56:20;6.60;99.90
23207;DHT22;11773;52.570;13.052;2022-12-05T15:59:17;6.70;99.90
23207;DHT22;11773;52.570;13.052;2022-12-05T16:01:55;6.60;99.90
23207;DHT22;11773;52.570;13.052;2022-12-05T16:04:49;6.50;99.90
23207;DHT22;11773;52.570;13.052;2022-12-05T16:07:23;6.60;99.90
23207;DHT22;11773;52.570;13.052;2022-12-05T16:09:58;6.60;99.90
23207;DHT22;11773;52.570;13.052;2022-12-05T16:12:39;6.50;99.90
23207;DHT22;11773;52.570;13.052;2022-12-05T16:15:12;6.60;99.90
23207;DHT22;11773;52.570;13.052;2022-12-05T16:17:51;6.70;99.90
23207;DHT22;11773;52.570;13.052;2022-12-05T16:20:28;6.60;99.90
23207;DHT22;11773;52.570;13.052;2022-12-05T16:23:02;6.60;99.90
23207;DHT22;11773;52.570;13.052;2022-12-05T16:25:35;6.50;99.90
23207;DHT22;11773;52.570;13.052;2022-12-05T16:30:58;6.60;99.90
23207;DHT22;11773;52.570;13.052;2022-12-05T16:33:30;6.60;99.90
23207;DHT22;11773;52.570;13.052;2022-12-05T16:36:09;6.40;99.90
23207;DHT22;11773;52.570;13.052;2022-12-05T16:38:40;6.50;99.90
23207;DHT22;11773;52.570;13.052;2022-12-05T16:41:13;6.60;99.90
23207;DHT22;11773;52.570;13.052;2022-12-05T16:43:45;6.60;99.90
23207;DHT22;11773;52.570;13.052;2022-12-05T16:49:17;6.60;99.90
23207;DHT22;11773;52.570;13.052;2022-12-05T16:52:02;6.60;99.90
23207;DHT22;11773;52.570;13.052;2022-12-05T16:54:38;6.60;99.90
23207;DHT22;11773;52.570;13.052;2022-12-05T16:57:11;6.60;99.90
23207;DHT22;11773;52.570;13.052;2022-12-05T16:59:43;6.60;99.90
23207;DHT22;11773;52.570;13.052;2022-12-05T17:02:17;6.60;99.90
23207;DHT22;11773;52.570;13.052;2022-12-05T17:04:47;6.70;99.90
23207;DHT22;11773;52.570;13.052;2022-12-05T17:07:20;6.70;99.90
23207;DHT22;11773;52.570;13.052;2022-12-05T17:09:49;6.70;99.90
23207;DHT22;11773;52.570;13.052;2022-12-05T17:12:21;6.70;99.90
23207;DHT22;11773;52.570;13.052;2022-12-05T17:14:52;6.70;99.90
23207;DHT22;11773;52.570;13.052;2022-12-05T17:17:21;6.70;99.90
23207;DHT22;11773;52.570;13.052;2022-12-05T17:19:51;6.70;99.90
23207;DHT22;11773;52.570;13.052;2022-12-05T17:22:20;6.80;99.90
23207;DHT22;11773;52.570;13.052;2022-12-05T17:24:52;6.80;99.90
23207;DHT22;11773;52.570;13.052;2022-12-05T17:27:24;6.80;99.90
23207;DHT22;11773;52.570;13.052;2022-12-05T17:29:54;6.80;99.90
23207;DHT22;11773;52.570;13.052;2022-12-05T17:32:24;6.80;99.90
23207;DHT22;11773;52.570;13.052;2022-12-05T17:34:53;6.60;99.90
23207;DHT22;11773;52.570;13.052;2022-12-05T17:37:23;6.70;99.90
23207;DHT22;11773;52.570;13.052;2022-12-05T17:39:52;6.70;99.90
23207;DHT22;11773;52.570;13.052;2022-12-05T17:42:22;6.80;99.90
23207;DHT22;11773;52.570;13.052;2022-12-05T17:44:53;6.80;99.90
23207;DHT22;11773;52.570;13.052;2022-12-05T17:47:23;6.80;99.90
23207;DHT22;11773;52.570;13.052;2022-12-05T17:49:53;6.80;99.90
23207;DHT22;11773;52.570;13.052;2022-12-05T17:52:23;6.80;99.90
23207;DHT22;11773;52.570;13.052;2022-12-05T17:54:52;6.80;99.90
23207;DHT22;11773;52.570;13.052;2022-12-05T17:57:22;6.70;99.90
23207;DHT22;11773;52.570;13.052;2022-12-05T17:59:52;6.80;99.90
23207;DHT22;11773;52.570;13.052;2022-12-05T18:02:21;6.70;99.90
23207;DHT22;11773;52.570;13.052;2022-12-05T18:04:51;6.70;99.90
23207;DHT22;11773;52.570;13.052;2022-12-05T18:07:21;6.80;99.90
23207;DHT22;11773;52.570;13.052;2022-12-05T18:09:50;6.80;99.90